Terminal Aerodrome Forecast
Issued by NWS Newport/Morehead City, NC

Home | Current Version | Previous Version | Graphics & Text | Print | Product List | Glossary On
Versions: 1 2 3 4 5 6 7 8 9 10 11 12 13 14 15
000
FTUS42 KMHX 201121
TAFEWN
TAF
KEWN 201121Z 2012/2112 22006KT P6SM SKC
      TEMPO 2012/2013 5SM BR SKC
     FM201800 22005KT P6SM VCTS OVC040CB
     FM210400 05005KT P6SM SCT007 BKN015=

USA.gov is the U.S. government's official web portal to all federal, state and local government web resources and services.